createdAt,value
2018-09-21T00:00:48.782Z,0.00
2018-09-21T00:01:48.963Z,0.00
2018-09-21T00:02:49.136Z,0.00
2018-09-21T00:03:49.317Z,0.00
2018-09-21T00:04:49.497Z,0.00
2018-09-21T00:05:49.672Z,0.00
2018-09-21T00:06:49.853Z,0.00
2018-09-21T00:07:50.036Z,0.00
2018-09-21T00:08:50.217Z,0.00
2018-09-21T00:09:50.387Z,0.00
2018-09-21T00:10:50.566Z,0.00
2018-09-21T00:11:50.728Z,0.00
2018-09-21T00:12:50.919Z,0.00
2018-09-21T00:13:51.095Z,0.00
2018-09-21T00:14:51.279Z,0.00
2018-09-21T00:15:51.460Z,0.00
2018-09-21T00:16:51.633Z,0.00
2018-09-21T00:17:51.803Z,0.00
2018-09-21T00:18:51.977Z,0.00
2018-09-21T00:19:52.149Z,0.00
2018-09-21T00:20:52.328Z,0.00
2018-09-21T00:21:52.511Z,0.00
2018-09-21T00:22:52.694Z,0.00
2018-09-21T00:23:52.868Z,0.00
2018-09-21T00:24:53.048Z,0.00
2018-09-21T00:25:53.232Z,0.00
2018-09-21T00:26:53.399Z,0.00
2018-09-21T00:27:53.578Z,0.00
2018-09-21T00:28:53.760Z,0.00
2018-09-21T00:29:53.936Z,0.00
2018-09-21T00:30:54.109Z,0.00
2018-09-21T00:31:54.276Z,0.00
2018-09-21T00:32:54.450Z,0.00
2018-09-21T00:33:54.629Z,0.00
2018-09-21T00:34:54.806Z,0.00
2018-09-21T00:35:54.988Z,0.00
2018-09-21T00:36:55.159Z,0.00
2018-09-21T00:37:55.340Z,0.00
2018-09-21T00:38:55.507Z,0.00
2018-09-21T00:39:55.692Z,0.00
2018-09-21T00:40:55.873Z,0.00
2018-09-21T00:41:56.061Z,0.00
2018-09-21T00:42:56.231Z,0.00
2018-09-21T00:43:56.402Z,0.00
2018-09-21T00:44:56.576Z,0.00
2018-09-21T00:45:56.753Z,0.00
2018-09-21T00:46:56.934Z,0.00
2018-09-21T00:47:57.113Z,0.00
2018-09-21T00:48:57.298Z,0.00
2018-09-21T00:49:57.487Z,0.00
2018-09-21T00:50:57.664Z,0.00
2018-09-21T00:51:57.837Z,0.00
2018-09-21T00:52:58.007Z,0.00
2018-09-21T00:53:58.185Z,0.00
2018-09-21T00:54:58.361Z,0.00
2018-09-21T00:55:58.537Z,0.00
2018-09-21T00:56:58.712Z,0.00
2018-09-21T00:57:58.887Z,0.00
2018-09-21T00:58:59.074Z,0.00
2018-09-21T00:59:59.245Z,0.00
2018-09-21T01:00:59.438Z,0.00
2018-09-21T01:01:59.609Z,0.00
2018-09-21T01:02:59.791Z,0.00
2018-09-21T01:03:59.956Z,0.00
2018-09-21T01:05:00.131Z,0.00
2018-09-21T01:06:00.304Z,0.00
2018-09-21T01:07:00.466Z,0.00
2018-09-21T01:08:00.639Z,0.00
2018-09-21T01:09:00.811Z,0.00
2018-09-21T01:10:00.985Z,0.00
2018-09-21T01:11:01.164Z,0.00
2018-09-21T01:12:01.342Z,0.00
2018-09-21T01:13:01.532Z,0.00
2018-09-21T01:14:01.708Z,0.00
2018-09-21T01:15:01.889Z,0.00
2018-09-21T01:16:02.064Z,0.00
2018-09-21T01:17:02.238Z,0.00
2018-09-21T01:18:02.420Z,0.00
2018-09-21T01:19:02.589Z,0.00
2018-09-21T01:20:02.767Z,0.00
2018-09-21T01:21:02.952Z,0.00
2018-09-21T01:22:03.117Z,0.00
2018-09-21T01:23:03.295Z,0.00
2018-09-21T01:24:03.460Z,0.00
2018-09-21T01:25:03.633Z,0.00
2018-09-21T01:26:03.802Z,0.00
2018-09-21T01:27:03.984Z,0.00
2018-09-21T01:28:04.155Z,0.00
2018-09-21T01:29:04.330Z,0.00
2018-09-21T01:30:04.520Z,0.00
2018-09-21T01:31:04.682Z,0.00
2018-09-21T01:32:04.850Z,0.00
2018-09-21T01:33:05.017Z,0.00
2018-09-21T01:34:05.196Z,0.00
2018-09-21T01:35:05.369Z,0.00
2018-09-21T01:36:05.546Z,0.00
2018-09-21T01:37:05.732Z,0.00
2018-09-21T01:38:05.906Z,0.00
2018-09-21T01:39:06.074Z,0.00
2018-09-21T01:40:06.243Z,0.00
2018-09-21T01:41:06.423Z,0.00
2018-09-21T01:42:06.593Z,0.00
2018-09-21T01:43:06.760Z,0.00
2018-09-21T01:44:06.936Z,0.00
2018-09-21T01:45:07.129Z,0.00
2018-09-21T01:46:07.302Z,0.00
2018-09-21T01:47:07.468Z,0.00
2018-09-21T01:48:07.644Z,0.00
2018-09-21T01:49:07.822Z,0.00
2018-09-21T01:50:07.993Z,0.00
2018-09-21T01:51:08.162Z,0.00
2018-09-21T01:52:08.333Z,0.00
2018-09-21T01:53:08.501Z,0.00
2018-09-21T01:54:08.680Z,0.00
2018-09-21T01:55:08.855Z,0.00
2018-09-21T01:56:09.036Z,0.00
2018-09-21T01:57:09.209Z,0.00
2018-09-21T01:58:09.386Z,0.00
2018-09-21T01:59:09.562Z,0.00
2018-09-21T02:00:09.743Z,0.00
2018-09-21T02:01:09.913Z,0.00
2018-09-21T02:02:10.087Z,0.00
2018-09-21T02:03:10.260Z,0.00
2018-09-21T02:04:10.439Z,0.00
2018-09-21T02:05:10.622Z,0.00
2018-09-21T02:06:10.795Z,0.00
2018-09-21T02:07:10.966Z,0.00
2018-09-21T02:08:11.137Z,0.00
2018-09-21T02:09:11.313Z,0.00
2018-09-21T02:10:11.488Z,0.00
2018-09-21T02:11:11.662Z,0.00
2018-09-21T02:12:11.834Z,0.00
2018-09-21T02:13:12.011Z,0.00
2018-09-21T02:14:12.189Z,0.00
2018-09-21T02:15:12.362Z,0.00
2018-09-21T02:16:12.537Z,0.00
2018-09-21T02:17:12.713Z,0.00
2018-09-21T02:18:12.892Z,0.00
2018-09-21T02:19:13.070Z,0.00
2018-09-21T02:20:13.252Z,0.00
2018-09-21T02:21:13.423Z,0.00
2018-09-21T02:22:13.593Z,0.00
2018-09-21T02:23:13.769Z,0.00
2018-09-21T02:24:13.946Z,0.00
2018-09-21T02:25:14.127Z,0.00
2018-09-21T02:26:14.302Z,0.00
2018-09-21T02:27:14.477Z,0.00
2018-09-21T02:28:14.652Z,0.00
2018-09-21T02:29:14.830Z,0.00
2018-09-21T02:30:15.027Z,0.00
2018-09-21T02:31:15.182Z,0.00
2018-09-21T02:32:15.351Z,0.00
2018-09-21T02:33:15.530Z,0.00
2018-09-21T02:34:15.712Z,0.00
2018-09-21T02:35:15.892Z,0.00
2018-09-21T02:36:16.078Z,0.00
2018-09-21T02:37:16.249Z,0.00
2018-09-21T02:38:16.426Z,0.00
2018-09-21T02:39:16.608Z,0.00
2018-09-21T02:40:16.779Z,0.00
2018-09-21T02:41:16.958Z,0.00
2018-09-21T02:42:17.131Z,0.00
2018-09-21T02:43:17.307Z,0.00
2018-09-21T02:44:17.485Z,0.00
2018-09-21T02:45:17.641Z,0.00
2018-09-21T02:46:17.820Z,0.00
2018-09-21T02:47:18.002Z,0.00
2018-09-21T02:48:18.178Z,0.00
2018-09-21T02:49:18.349Z,0.00
2018-09-21T02:50:18.528Z,0.00
2018-09-21T02:51:18.700Z,0.00
2018-09-21T02:52:18.875Z,0.00
2018-09-21T02:53:19.061Z,0.00
2018-09-21T02:54:19.228Z,0.00
2018-09-21T02:55:19.405Z,0.00
2018-09-21T02:56:19.586Z,0.00
2018-09-21T02:57:19.770Z,0.00
2018-09-21T02:58:19.943Z,0.00
2018-09-21T02:59:20.103Z,0.00
2018-09-21T03:00:20.329Z,0.00
2018-09-21T03:01:20.466Z,0.00
2018-09-21T03:02:20.676Z,0.00
2018-09-21T03:03:20.820Z,0.00
2018-09-21T03:04:20.990Z,0.00
2018-09-21T03:05:25.774Z,0.00
2018-09-21T03:06:24.213Z,0.00
2018-09-21T03:07:22.049Z,0.00
2018-09-21T03:08:22.768Z,0.00
2018-09-21T03:09:21.830Z,0.00
2018-09-21T03:10:22.007Z,0.00
2018-09-21T03:11:22.184Z,0.00
2018-09-21T03:12:22.365Z,0.00
2018-09-21T03:13:22.543Z,0.00
2018-09-21T03:14:22.715Z,0.00
2018-09-21T03:15:22.900Z,0.00
2018-09-21T03:16:23.076Z,0.00
2018-09-21T03:17:23.251Z,0.00
2018-09-21T03:18:23.429Z,0.00
2018-09-21T03:19:23.597Z,0.00
2018-09-21T03:20:23.765Z,0.00
2018-09-21T03:21:23.937Z,0.00
2018-09-21T03:22:24.102Z,0.00
2018-09-21T03:23:24.283Z,0.00
2018-09-21T03:24:24.457Z,0.00
2018-09-21T03:25:24.636Z,0.00
2018-09-21T03:26:24.817Z,0.00
2018-09-21T03:27:24.991Z,0.00
2018-09-21T03:28:25.168Z,0.00
2018-09-21T03:29:25.355Z,0.00
2018-09-21T03:30:25.525Z,0.00
2018-09-21T03:31:25.700Z,0.00
2018-09-21T03:32:25.878Z,0.00
2018-09-21T03:33:26.049Z,0.00
2018-09-21T03:34:26.224Z,0.00
2018-09-21T03:35:26.405Z,0.00
2018-09-21T03:36:26.576Z,0.00
2018-09-21T03:37:26.775Z,0.00
2018-09-21T03:38:26.957Z,0.00
2018-09-21T03:39:27.134Z,0.00
2018-09-21T03:40:27.801Z,0.00
2018-09-21T03:41:27.468Z,0.00
2018-09-21T03:42:27.633Z,0.00
2018-09-21T03:43:27.805Z,0.00
2018-09-21T03:44:27.982Z,0.00
2018-09-21T03:45:28.159Z,0.00
2018-09-21T03:46:28.336Z,0.00
2018-09-21T03:47:28.514Z,0.00
2018-09-21T03:48:28.703Z,0.00
2018-09-21T03:49:28.881Z,0.00
2018-09-21T03:50:29.059Z,0.00
2018-09-21T03:51:29.230Z,0.00
2018-09-21T03:52:29.401Z,0.00
2018-09-21T03:53:29.579Z,0.00
2018-09-21T03:54:29.759Z,0.00
2018-09-21T03:55:29.942Z,0.00
2018-09-21T03:56:30.175Z,0.00
2018-09-21T03:57:30.318Z,0.00
2018-09-21T03:58:30.492Z,0.00
2018-09-21T03:59:30.671Z,0.00
2018-09-21T04:00:30.848Z,0.00
2018-09-21T04:01:31.036Z,0.00
2018-09-21T04:02:31.194Z,0.00
2018-09-21T04:03:31.371Z,0.00
2018-09-21T04:04:31.595Z,0.00
2018-09-21T04:05:31.750Z,0.00
2018-09-21T04:06:31.927Z,0.00
2018-09-21T04:07:32.098Z,0.00
2018-09-21T04:08:32.281Z,0.00
2018-09-21T04:09:32.456Z,0.00
2018-09-21T04:10:32.656Z,0.00
2018-09-21T04:11:32.846Z,0.00
2018-09-21T04:12:33.029Z,0.00
2018-09-21T04:13:33.478Z,0.00
2018-09-21T04:14:33.401Z,0.00
2018-09-21T04:15:33.577Z,0.00
2018-09-21T04:16:33.768Z,0.00
2018-09-21T04:17:33.945Z,0.00
2018-09-21T04:18:34.124Z,0.00
2018-09-21T04:19:34.317Z,0.00
2018-09-21T04:20:34.488Z,0.00
2018-09-21T04:21:34.666Z,0.00
2018-09-21T04:22:34.837Z,0.00
2018-09-21T04:23:35.025Z,0.00
2018-09-21T04:24:35.201Z,0.00
2018-09-21T04:25:35.390Z,0.00
2018-09-21T04:26:35.559Z,0.00
2018-09-21T04:27:35.748Z,0.00
2018-09-21T04:28:35.921Z,0.00
2018-09-21T04:29:36.097Z,0.00
2018-09-21T04:30:36.290Z,0.00
2018-09-21T04:31:36.455Z,0.00
2018-09-21T04:32:36.633Z,0.00
2018-09-21T04:33:36.804Z,0.00
2018-09-21T04:34:36.976Z,0.00
2018-09-21T04:35:37.152Z,0.00
2018-09-21T04:36:37.333Z,0.00
2018-09-21T04:37:37.507Z,0.00
2018-09-21T04:38:37.680Z,4.00
2018-09-21T04:39:37.855Z,4.00
2018-09-21T04:40:38.040Z,0.00
2018-09-21T04:41:38.219Z,4.00
2018-09-21T04:42:38.396Z,4.00
2018-09-21T04:43:38.574Z,4.00
2018-09-21T04:44:38.748Z,4.00
2018-09-21T04:45:40.843Z,4.00
2018-09-21T04:46:40.387Z,8.00
2018-09-21T04:47:39.292Z,12.00
2018-09-21T04:48:39.459Z,8.00
2018-09-21T04:49:39.640Z,12.00
2018-09-21T04:50:39.810Z,16.00
2018-09-21T04:51:39.995Z,16.00
2018-09-21T04:52:40.202Z,20.00
2018-09-21T04:53:40.384Z,24.00
2018-09-21T04:54:40.574Z,28.00
2018-09-21T04:55:40.762Z,32.00
2018-09-21T04:56:40.946Z,40.00
2018-09-21T04:57:41.145Z,44.00
2018-09-21T04:58:41.322Z,48.00
2018-09-21T04:59:41.743Z,52.00
2018-09-21T05:00:41.677Z,60.00
2018-09-21T05:01:41.862Z,64.00
2018-09-21T05:02:42.033Z,68.00
2018-09-21T05:03:42.237Z,76.00
2018-09-21T05:04:42.439Z,80.00
2018-09-21T05:05:42.611Z,88.00
2018-09-21T05:06:42.781Z,96.00
2018-09-21T05:07:42.973Z,104.00
2018-09-21T05:08:43.848Z,112.00
2018-09-21T05:09:43.293Z,120.00
2018-09-21T05:10:43.466Z,128.00
2018-09-21T05:11:43.668Z,140.00
2018-09-21T05:12:44.076Z,148.00
2018-09-21T05:13:44.084Z,156.00
2018-09-21T05:14:44.523Z,168.00
2018-09-21T05:15:44.478Z,180.00
2018-09-21T05:16:44.528Z,196.00
2018-09-21T05:17:44.691Z,212.00
2018-09-21T05:18:44.868Z,224.00
2018-09-21T05:19:46.189Z,240.00
2018-09-21T05:20:45.225Z,256.00
2018-09-21T05:21:45.415Z,272.00
2018-09-21T05:22:46.835Z,292.00
2018-09-21T05:23:47.935Z,312.00
2018-09-21T05:24:47.996Z,320.00
2018-09-21T05:25:46.138Z,324.00
2018-09-21T05:26:46.321Z,324.00
2018-09-21T05:27:46.503Z,324.00
2018-09-21T05:28:46.694Z,324.00
2018-09-21T05:29:46.890Z,336.00
2018-09-21T05:30:47.071Z,348.00
2018-09-21T05:31:47.270Z,364.00
2018-09-21T05:32:47.456Z,376.00
2018-09-21T05:33:47.619Z,388.00
2018-09-21T05:34:47.936Z,404.00
2018-09-21T05:35:47.998Z,412.00
2018-09-21T05:36:48.183Z,424.00
2018-09-21T05:37:48.358Z,432.00
2018-09-21T05:38:48.543Z,444.00
2018-09-21T05:39:48.716Z,452.00
2018-09-21T05:40:48.903Z,460.00
2018-09-21T05:41:49.077Z,472.00
2018-09-21T05:42:49.280Z,488.00
2018-09-21T05:43:49.457Z,504.00
2018-09-21T05:44:49.658Z,516.00
2018-09-21T05:45:49.841Z,532.00
2018-09-21T05:46:50.017Z,560.00
2018-09-21T05:47:50.191Z,592.00
2018-09-21T05:48:50.367Z,628.00
2018-09-21T05:49:50.542Z,672.00
2018-09-21T05:50:50.709Z,720.00
2018-09-21T05:51:50.882Z,792.00
2018-09-21T05:52:51.053Z,872.00
2018-09-21T05:53:51.233Z,944.00
2018-09-21T05:54:51.420Z,956.00
2018-09-21T05:55:51.597Z,988.00
2018-09-21T05:56:51.779Z,1072.00
2018-09-21T05:57:51.948Z,1172.00
2018-09-21T05:58:52.115Z,1296.00
2018-09-21T05:59:52.296Z,1400.00
2018-09-21T06:00:52.467Z,1508.00
2018-09-21T06:01:52.654Z,1620.00
2018-09-21T06:02:52.896Z,1676.00
2018-09-21T06:03:52.999Z,1704.00
2018-09-21T06:04:53.176Z,1732.00
2018-09-21T06:05:53.353Z,1784.00
2018-09-21T06:06:53.532Z,1840.00
2018-09-21T06:07:53.719Z,1856.00
2018-09-21T06:08:53.873Z,1876.00
2018-09-21T06:09:54.046Z,1896.00
2018-09-21T06:10:54.223Z,1936.00
2018-09-21T06:11:54.393Z,2076.00
2018-09-21T06:12:54.563Z,2132.00
2018-09-21T06:13:54.803Z,2168.00
2018-09-21T06:14:54.924Z,2168.00
2018-09-21T06:15:55.105Z,2164.00
2018-09-21T06:16:55.277Z,2300.00
2018-09-21T06:17:55.444Z,2356.00
2018-09-21T06:18:55.617Z,2444.00
2018-09-21T06:19:55.795Z,2540.00
2018-09-21T06:20:55.972Z,2616.00
2018-09-21T06:21:56.144Z,2688.00
2018-09-21T06:22:56.340Z,2792.00
2018-09-21T06:23:56.493Z,2928.00
2018-09-21T06:24:56.664Z,3000.00
2018-09-21T06:25:56.842Z,3024.00
2018-09-21T06:26:57.017Z,3076.00
2018-09-21T06:27:57.197Z,3124.00
2018-09-21T06:28:57.375Z,3240.00
2018-09-21T06:29:57.552Z,3644.00
2018-09-21T06:30:57.721Z,5916.00
2018-09-21T06:31:57.941Z,14240.00
2018-09-21T06:32:58.100Z,25856.00
2018-09-21T06:33:58.284Z,34656.00
2018-09-21T06:34:58.479Z,34144.00
2018-09-21T06:35:58.683Z,27008.00
2018-09-21T06:36:58.858Z,19424.00
2018-09-21T06:37:59.027Z,9704.00
2018-09-21T06:38:59.205Z,6740.00
2018-09-21T06:39:59.386Z,6192.00
2018-09-21T06:40:59.607Z,6188.00
2018-09-21T06:41:59.759Z,6356.00
2018-09-21T06:42:59.960Z,6320.00
2018-09-21T06:44:01.233Z,6196.00
2018-09-21T06:45:00.382Z,6228.00
2018-09-21T06:46:00.565Z,6304.00
2018-09-21T06:47:00.747Z,6352.00
2018-09-21T06:48:00.962Z,6384.00
2018-09-21T06:49:01.159Z,6476.00
2018-09-21T06:50:01.362Z,6564.00
2018-09-21T06:51:01.549Z,6712.00
2018-09-21T06:52:01.734Z,6832.00
2018-09-21T06:53:01.917Z,6904.00
2018-09-21T06:54:02.110Z,6952.00
2018-09-21T06:55:02.319Z,6944.00
2018-09-21T06:56:02.491Z,7048.00
2018-09-21T06:57:02.683Z,7204.00
2018-09-21T06:58:02.902Z,7348.00
2018-09-21T06:59:03.108Z,7588.00
2018-09-21T07:00:03.298Z,7684.00
2018-09-21T07:01:03.517Z,7940.00
2018-09-21T07:02:03.860Z,8536.00
2018-09-21T07:03:03.848Z,8664.00
2018-09-21T07:04:04.031Z,9100.00
2018-09-21T07:05:04.208Z,8952.00
2018-09-21T07:06:04.380Z,8092.00
2018-09-21T07:07:04.562Z,8476.00
2018-09-21T07:08:04.740Z,8804.00
2018-09-21T07:09:04.915Z,8836.00
2018-09-21T07:10:05.187Z,9432.00
2018-09-21T07:11:05.331Z,9972.00
2018-09-21T07:12:05.514Z,10264.00
2018-09-21T07:13:05.786Z,10052.00
2018-09-21T07:14:05.858Z,9904.00
2018-09-21T07:15:06.071Z,9628.00
2018-09-21T07:16:06.261Z,9844.00
2018-09-21T07:17:06.432Z,8664.00
2018-09-21T07:18:06.676Z,8476.00
2018-09-21T07:19:06.841Z,7552.00
2018-09-21T07:20:07.290Z,7092.00
2018-09-21T07:21:07.222Z,5972.00
2018-09-21T07:22:07.400Z,5408.00
2018-09-21T07:23:07.554Z,5224.00
2018-09-21T07:24:07.773Z,5320.00
2018-09-21T07:25:09.894Z,5220.00
2018-09-21T07:26:08.515Z,4984.00
2018-09-21T07:27:08.850Z,4832.00
2018-09-21T07:28:08.811Z,4804.00
2018-09-21T07:29:08.826Z,4600.00
2018-09-21T07:30:09.168Z,4332.00
2018-09-21T07:31:09.294Z,4072.00
2018-09-21T07:32:09.032Z,3840.00
2018-09-21T07:33:09.205Z,3612.00
2018-09-21T07:34:09.400Z,3440.00
2018-09-21T07:35:10.663Z,3464.00
2018-09-21T07:36:11.250Z,3932.00
2018-09-21T07:37:11.206Z,4940.00
2018-09-21T07:38:11.531Z,5340.00
2018-09-21T07:39:11.351Z,6872.00
2018-09-21T07:40:10.366Z,6280.00
2018-09-21T07:41:10.546Z,7576.00
2018-09-21T07:42:10.722Z,8436.00
2018-09-21T07:43:10.908Z,8104.00
2018-09-21T07:44:11.096Z,7792.00
2018-09-21T07:45:11.328Z,8564.00
2018-09-21T07:46:11.481Z,8360.00
2018-09-21T07:47:11.666Z,9036.00
2018-09-21T07:48:11.883Z,9044.00
2018-09-21T07:49:12.040Z,9236.00
2018-09-21T07:50:12.232Z,9332.00
2018-09-21T07:51:12.521Z,10300.00
2018-09-21T07:52:12.709Z,10192.00
2018-09-21T07:53:12.769Z,9200.00
2018-09-21T07:54:13.207Z,11244.00
2018-09-21T07:55:13.134Z,11200.00
2018-09-21T07:56:13.362Z,11272.00
2018-09-21T07:57:13.444Z,11052.00
2018-09-21T07:58:17.418Z,10772.00
2018-09-21T07:59:13.798Z,9612.00
2018-09-21T08:00:13.999Z,7876.00
2018-09-21T08:01:14.248Z,7340.00
2018-09-21T08:02:14.436Z,5788.00
2018-09-21T08:03:14.900Z,5008.00
2018-09-21T08:04:14.851Z,4892.00
2018-09-21T08:05:15.564Z,4776.00
2018-09-21T08:06:15.236Z,3712.00
2018-09-21T08:07:15.476Z,3632.00
2018-09-21T08:08:15.596Z,4816.00
2018-09-21T08:09:15.778Z,5460.00
2018-09-21T08:10:15.985Z,5196.00
2018-09-21T08:11:16.176Z,5008.00
2018-09-21T08:12:16.364Z,4692.00
2018-09-21T08:13:16.550Z,4364.00
2018-09-21T08:14:16.743Z,4028.00
2018-09-21T08:15:16.909Z,3732.00
2018-09-21T08:16:17.090Z,3504.00
2018-09-21T08:17:17.285Z,3316.00
2018-09-21T08:18:17.444Z,3156.00
2018-09-21T08:19:17.626Z,3144.00
2018-09-21T08:20:17.799Z,3244.00
2018-09-21T08:21:18.055Z,3404.00
2018-09-21T08:22:18.111Z,3588.00
2018-09-21T08:23:18.324Z,3740.00
2018-09-21T08:24:18.738Z,3812.00
2018-09-21T08:25:19.702Z,3812.00
2018-09-21T08:26:18.894Z,3784.00
2018-09-21T08:27:20.263Z,3808.00
2018-09-21T08:28:19.202Z,3880.00
2018-09-21T08:29:19.387Z,3968.00
2018-09-21T08:30:19.576Z,4056.00
2018-09-21T08:31:20.291Z,4120.00
2018-09-21T08:32:19.990Z,4096.00
2018-09-21T08:33:20.209Z,3960.00
2018-09-21T08:34:20.351Z,3796.00
2018-09-21T08:35:20.525Z,3636.00
2018-09-21T08:36:20.729Z,3532.00
2018-09-21T08:37:21.012Z,3496.00
2018-09-21T08:38:21.175Z,3536.00
2018-09-21T08:39:21.357Z,3688.00
2018-09-21T08:40:21.688Z,3988.00
2018-09-21T08:41:21.525Z,4392.00
2018-09-21T08:42:22.146Z,4804.00
2018-09-21T08:43:21.856Z,5092.00
2018-09-21T08:44:22.043Z,5228.00
2018-09-21T08:45:22.255Z,5212.00
2018-09-21T08:46:22.416Z,5096.00
2018-09-21T08:47:22.600Z,5000.00
2018-09-21T08:48:22.782Z,4888.00
2018-09-21T08:49:22.959Z,4876.00
2018-09-21T08:50:23.154Z,4900.00
2018-09-21T08:51:23.345Z,4912.00
2018-09-21T08:52:23.531Z,5024.00
2018-09-21T08:53:24.264Z,5320.00
2018-09-21T08:54:23.940Z,5656.00
2018-09-21T08:55:24.136Z,5972.00
2018-09-21T08:56:24.314Z,6156.00
2018-09-21T08:57:24.494Z,5852.00
2018-09-21T08:58:24.853Z,5416.00
2018-09-21T08:59:24.910Z,4864.00
2018-09-21T09:00:24.977Z,4552.00
2018-09-21T09:01:25.159Z,4464.00
2018-09-21T09:02:25.723Z,4500.00
2018-09-21T09:03:25.556Z,4520.00
2018-09-21T09:04:25.869Z,4424.00
2018-09-21T09:05:25.802Z,4216.00
2018-09-21T09:06:25.983Z,4056.00
2018-09-21T09:07:26.170Z,4012.00
2018-09-21T09:08:26.384Z,3988.00
2018-09-21T09:09:26.552Z,3924.00
2018-09-21T09:10:26.753Z,3904.00
2018-09-21T09:11:26.939Z,4016.00
2018-09-21T09:12:27.137Z,4104.00
2018-09-21T09:13:27.295Z,4300.00
2018-09-21T09:14:27.514Z,4252.00
2018-09-21T09:15:27.703Z,4044.00
2018-09-21T09:16:27.902Z,3812.00
2018-09-21T09:17:28.133Z,3740.00
2018-09-21T09:18:28.335Z,3992.00
2018-09-21T09:19:28.574Z,4588.00
2018-09-21T09:20:28.755Z,5148.00
2018-09-21T09:21:28.976Z,5572.00
2018-09-21T09:22:29.141Z,6104.00
2018-09-21T09:23:29.351Z,7088.00
2018-09-21T09:24:29.697Z,8520.00
2018-09-21T09:25:29.592Z,8496.00
2018-09-21T09:26:29.775Z,6812.00
2018-09-21T09:27:29.975Z,5880.00
2018-09-21T09:28:30.158Z,5608.00
2018-09-21T09:29:30.330Z,5492.00
2018-09-21T09:30:30.519Z,5684.00
2018-09-21T09:31:30.698Z,5984.00
2018-09-21T09:32:30.883Z,6172.00
2018-09-21T09:33:31.161Z,6616.00
2018-09-21T09:34:31.285Z,6768.00
2018-09-21T09:35:31.360Z,6900.00
2018-09-21T09:36:31.568Z,7744.00
2018-09-21T09:37:31.869Z,7428.00
2018-09-21T09:38:31.763Z,6396.00
2018-09-21T09:39:31.941Z,6400.00
2018-09-21T09:40:32.130Z,7220.00
2018-09-21T09:41:32.339Z,8560.00
2018-09-21T09:42:32.544Z,9488.00
2018-09-21T09:43:32.696Z,9268.00
2018-09-21T09:44:32.908Z,11356.00
2018-09-21T09:45:33.078Z,13196.00
2018-09-21T09:46:33.261Z,17408.00
2018-09-21T09:47:33.480Z,15764.00
2018-09-21T09:48:33.778Z,15992.00
2018-09-21T09:49:33.894Z,20896.00
2018-09-21T09:50:33.986Z,20352.00
2018-09-21T09:51:34.165Z,20544.00
2018-09-21T09:52:34.390Z,18656.00
2018-09-21T09:53:34.553Z,15020.00
2018-09-21T09:54:34.732Z,14140.00
2018-09-21T09:55:34.916Z,16416.00
2018-09-21T09:56:35.118Z,19008.00
2018-09-21T09:57:35.317Z,19424.00
2018-09-21T09:58:35.544Z,16512.00
2018-09-21T09:59:35.757Z,14660.00
2018-09-21T10:00:35.946Z,16480.00
2018-09-21T10:01:36.129Z,12872.00
2018-09-21T10:02:36.324Z,15304.00
2018-09-21T10:03:36.585Z,16320.00
2018-09-21T10:04:36.688Z,16192.00
2018-09-21T10:05:36.899Z,17760.00
2018-09-21T10:06:37.091Z,13304.00
2018-09-21T10:07:37.255Z,9160.00
2018-09-21T10:08:37.442Z,7580.00
2018-09-21T10:09:38.193Z,6664.00
2018-09-21T10:10:37.783Z,5876.00
2018-09-21T10:11:38.177Z,5376.00
2018-09-21T10:12:38.237Z,5248.00
2018-09-21T10:13:38.289Z,4852.00
2018-09-21T10:14:38.995Z,4440.00
2018-09-21T10:15:38.685Z,4308.00
2018-09-21T10:16:38.886Z,4584.00
2018-09-21T10:17:39.097Z,4908.00
2018-09-21T10:18:39.294Z,4904.00
2018-09-21T10:19:40.199Z,4924.00
2018-09-21T10:20:39.718Z,4924.00
2018-09-21T10:21:39.861Z,4956.00
2018-09-21T10:22:40.031Z,4988.00
2018-09-21T10:23:40.213Z,5248.00
2018-09-21T10:24:40.390Z,5768.00
2018-09-21T10:25:40.576Z,5680.00
2018-09-21T10:26:40.817Z,5792.00
2018-09-21T10:27:40.988Z,6304.00
2018-09-21T10:28:41.315Z,6224.00
2018-09-21T10:29:41.306Z,6204.00
2018-09-21T10:30:41.545Z,6248.00
2018-09-21T10:31:41.699Z,5600.00
2018-09-21T10:32:41.885Z,6612.00
2018-09-21T10:33:42.173Z,7520.00
2018-09-21T10:34:42.366Z,10340.00
2018-09-21T10:35:42.606Z,9884.00
2018-09-21T10:36:42.698Z,12688.00
2018-09-21T10:37:42.899Z,12664.00
2018-09-21T10:38:43.106Z,13256.00
2018-09-21T10:39:43.254Z,11528.00
2018-09-21T10:40:43.442Z,8004.00
2018-09-21T10:41:43.628Z,6324.00
2018-09-21T10:42:43.850Z,5728.00
2018-09-21T10:43:44.001Z,5968.00
2018-09-21T10:44:44.212Z,5800.00
2018-09-21T10:45:44.407Z,4932.00
2018-09-21T10:46:44.577Z,4200.00
2018-09-21T10:47:44.759Z,4076.00
2018-09-21T10:48:44.948Z,4588.00
2018-09-21T10:49:45.136Z,4920.00
2018-09-21T10:50:45.316Z,4820.00
2018-09-21T10:51:45.505Z,4600.00
2018-09-21T10:52:45.757Z,3924.00
2018-09-21T10:53:45.961Z,3080.00
2018-09-21T10:54:46.021Z,2660.00
2018-09-21T10:55:46.236Z,2316.00
2018-09-21T10:56:46.411Z,2160.00
2018-09-21T10:57:46.592Z,2116.00
2018-09-21T10:58:46.854Z,2340.00
2018-09-21T10:59:46.983Z,2708.00
2018-09-21T11:00:47.183Z,3012.00
2018-09-21T11:01:47.344Z,3240.00
2018-09-21T11:02:47.525Z,3476.00
2018-09-21T11:03:47.703Z,3976.00
2018-09-21T11:04:47.880Z,4956.00
2018-09-21T11:05:48.057Z,5640.00
2018-09-21T11:06:48.244Z,5656.00
2018-09-21T11:07:48.429Z,5492.00
2018-09-21T11:08:48.627Z,5244.00
2018-09-21T11:09:48.815Z,4832.00
2018-09-21T11:10:49.003Z,4236.00
2018-09-21T11:11:49.217Z,3728.00
2018-09-21T11:12:49.401Z,3364.00
2018-09-21T11:13:49.578Z,3096.00
2018-09-21T11:14:49.790Z,2856.00
2018-09-21T11:15:49.973Z,2784.00
2018-09-21T11:16:50.176Z,2992.00
2018-09-21T11:17:50.366Z,3400.00
2018-09-21T11:18:50.546Z,3800.00
2018-09-21T11:19:50.740Z,4188.00
2018-09-21T11:20:50.913Z,4820.00
2018-09-21T11:21:51.091Z,5636.00
2018-09-21T11:22:51.273Z,6224.00
2018-09-21T11:23:51.526Z,6496.00
2018-09-21T11:24:51.587Z,6956.00
2018-09-21T11:25:51.773Z,7384.00
2018-09-21T11:26:51.967Z,7400.00
2018-09-21T11:27:52.146Z,7544.00
2018-09-21T11:28:52.329Z,7936.00
2018-09-21T11:29:52.508Z,7916.00
2018-09-21T11:30:55.679Z,7356.00
2018-09-21T11:31:54.559Z,7100.00
2018-09-21T11:32:53.949Z,8068.00
2018-09-21T11:33:55.452Z,8440.00
2018-09-21T11:34:54.832Z,11608.00
2018-09-21T11:35:53.666Z,10076.00
2018-09-21T11:36:53.982Z,8844.00
2018-09-21T11:37:54.945Z,7656.00
2018-09-21T11:38:56.958Z,6636.00
2018-09-21T11:39:54.161Z,5588.00
2018-09-21T11:40:55.291Z,4608.00
2018-09-21T11:41:55.995Z,3684.00
2018-09-21T11:42:57.694Z,3120.00
2018-09-21T11:43:54.982Z,2852.00
2018-09-21T11:44:56.745Z,2764.00
2018-09-21T11:45:57.113Z,3000.00
2018-09-21T11:46:57.407Z,3568.00
2018-09-21T11:47:57.917Z,4280.00
2018-09-21T11:48:56.452Z,4948.00
2018-09-21T11:49:56.798Z,5296.00
2018-09-21T11:50:58.802Z,5192.00
2018-09-21T11:51:56.636Z,4720.00
2018-09-21T11:52:58.325Z,4048.00
2018-09-21T11:53:58.621Z,3236.00
2018-09-21T11:54:57.187Z,2380.00
2018-09-21T11:55:57.981Z,2136.00
2018-09-21T11:56:58.951Z,1872.00
2018-09-21T11:58:00.346Z,1560.00
2018-09-21T11:58:58.829Z,1572.00
2018-09-21T11:59:59.031Z,1852.00
2018-09-21T12:01:01.071Z,2472.00
2018-09-21T12:02:01.607Z,2984.00
2018-09-21T12:03:00.229Z,3260.00
2018-09-21T12:03:59.961Z,3268.00
2018-09-21T12:05:01.132Z,3212.00
2018-09-21T12:05:58.504Z,3296.00
2018-09-21T12:06:59.430Z,3380.00
2018-09-21T12:08:00.102Z,3864.00
2018-09-21T12:09:02.430Z,4412.00
2018-09-21T12:09:59.837Z,4644.00
2018-09-21T12:11:00.417Z,5072.00
2018-09-21T12:12:01.430Z,5828.00
2018-09-21T12:13:01.981Z,6336.00
2018-09-21T12:14:02.117Z,6884.00
2018-09-21T12:15:02.421Z,6896.00
2018-09-21T12:16:01.624Z,6600.00
2018-09-21T12:17:00.373Z,6600.00
2018-09-21T12:18:02.562Z,6624.00
2018-09-21T12:19:00.716Z,6972.00
2018-09-21T12:20:01.681Z,7156.00
2018-09-21T12:21:01.512Z,7300.00
2018-09-21T12:22:01.794Z,6980.00
2018-09-21T12:23:01.517Z,6176.00
2018-09-21T12:24:01.505Z,5952.00
2018-09-21T12:25:01.884Z,6516.00
2018-09-21T12:26:01.954Z,7516.00
2018-09-21T12:27:01.940Z,7492.00
2018-09-21T12:28:02.606Z,7048.00
2018-09-21T12:29:02.408Z,5808.00
2018-09-21T12:30:02.454Z,4344.00
2018-09-21T12:31:02.727Z,4640.00
2018-09-21T12:32:02.847Z,5128.00
2018-09-21T12:33:02.955Z,3120.00
2018-09-21T12:34:03.034Z,2752.00
2018-09-21T12:35:03.212Z,4404.00
2018-09-21T12:36:03.467Z,3748.00